Time;durP1;ratioP1;P1;durP2;ratioP2;P2;SDS_P1;SDS_P2;PMS_P1;PMS_P2;Temp;Humidity;BMP_temperature;BMP_pressure;BME280_temperature;BME280_humidity;BME280_pressure;Samples;Min_cycle;Max_cycle;Signal;HPM_P1;HPM_P2
2022/06/05 00:01:09;;;;;;;14.70;7.45;;;12.50;99.90;;;;;;5045163;28;20059;-78
2022/06/05 00:03:58;;;;;;;10.30;7.10;;;12.50;99.90;;;;;;5042688;28;20482;-80
2022/06/05 00:06:37;;;;;;;13.07;6.97;;;12.50;99.90;;;;;;5035536;28;20153;-76
2022/06/05 00:09:20;;;;;;;12.00;7.03;;;12.40;99.90;;;;;;5045359;28;20453;-79
2022/06/05 00:12:06;;;;;;;11.05;7.35;;;12.40;99.90;;;;;;5028270;28;20052;-79
2022/06/05 00:14:32;;;;;;;10.43;7.45;;;12.40;99.90;;;;;;5028349;28;20490;-79
2022/06/05 00:16:57;;;;;;;9.93;7.07;;;12.40;99.90;;;;;;5028524;28;20041;-79
2022/06/05 00:19:23;;;;;;;10.38;6.75;;;12.40;99.90;;;;;;5045385;28;20116;-79
2022/06/05 00:21:49;;;;;;;12.43;7.60;;;12.40;99.90;;;;;;5044535;28;20033;-78
2022/06/05 00:24:15;;;;;;;13.60;7.20;;;12.40;99.90;;;;;;5044050;28;20112;-78
2022/06/05 00:27:06;;;;;;;13.68;7.55;;;12.40;99.90;;;;;;5047911;28;20543;-78
2022/06/05 00:29:47;;;;;;;10.68;7.47;;;12.40;99.90;;;;;;5031328;28;20048;-80
2022/06/05 00:32:34;;;;;;;10.57;6.93;;;12.40;99.90;;;;;;5044531;28;20418;-78
2022/06/05 00:35:00;;;;;;;10.38;7.50;;;12.30;99.90;;;;;;5043892;28;20267;-77
2022/06/05 00:37:39;;;;;;;10.52;7.28;;;12.40;99.90;;;;;;5045348;28;20037;-80
2022/06/05 00:40:21;;;;;;;12.65;8.27;;;12.30;99.90;;;;;;5044077;28;20416;-76
2022/06/05 00:42:48;;;;;;;12.65;7.80;;;12.40;99.90;;;;;;5027926;28;20071;-77
2022/06/05 00:45:15;;;;;;;12.13;8.07;;;12.30;99.90;;;;;;5044389;28;20041;-79
2022/06/05 00:47:43;;;;;;;10.90;7.53;;;12.30;99.90;;;;;;5044841;28;20028;-80
2022/06/05 00:50:10;;;;;;;12.20;8.27;;;12.30;99.90;;;;;;5043672;28;20068;-77
2022/06/05 00:52:40;;;;;;;12.45;8.50;;;12.30;99.90;;;;;;5059246;28;20048;-81
2022/06/05 00:55:07;;;;;;;12.48;8.93;;;12.30;99.90;;;;;;5027717;28;20041;-78
2022/06/05 00:57:35;;;;;;;13.80;8.85;;;12.20;99.90;;;;;;5028727;28;20056;-79
2022/06/05 01:00:09;;;;;;;12.55;9.25;;;12.30;99.90;;;;;;5042180;28;20584;-79
2022/06/05 01:02:35;;;;;;;;;;;12.20;99.90;;;;;;5045778;28;20502;-79
2022/06/05 01:05:01;;;;;;;15.55;9.23;;;12.20;99.90;;;;;;5043100;28;19917;-77
2022/06/05 01:07:26;;;;;;;15.90;9.38;;;12.20;99.90;;;;;;5042616;28;20099;-80
2022/06/05 01:09:52;;;;;;;14.57;9.15;;;12.20;99.90;;;;;;5048607;28;20045;-82
2022/06/05 01:12:24;;;;;;;18.23;10.15;;;12.20;99.90;;;;;;5028466;28;20527;-78
2022/06/05 01:15:22;;;;;;;15.90;9.50;;;12.20;99.90;;;;;;5026906;28;20040;-77
2022/06/05 01:18:04;;;;;;;17.48;9.73;;;12.20;99.90;;;;;;5004147;28;20048;-78
2022/06/05 01:20:36;;;;;;;14.23;9.40;;;12.20;99.90;;;;;;5044235;28;20045;-78
2022/06/05 01:23:15;;;;;;;14.18;9.00;;;12.20;99.90;;;;;;5044722;28;20043;-78
2022/06/05 01:26:22;;;;;;;19.33;9.50;;;12.20;99.90;;;;;;5043696;28;20127;-78
2022/06/05 01:29:06;;;;;;;16.60;9.63;;;12.20;99.90;;;;;;5043814;28;20491;-79
2022/06/05 01:31:41;;;;;;;15.00;9.10;;;12.10;99.90;;;;;;5033781;28;20055;-79
2022/06/05 01:34:19;;;;;;;15.45;9.35;;;12.20;99.90;;;;;;5048486;28;20048;-76
2022/06/05 01:37:06;;;;;;;15.73;8.90;;;12.20;99.90;;;;;;5046780;28;20091;-77
2022/06/05 01:39:53;;;;;;;15.95;8.52;;;12.10;99.90;;;;;;5031220;28;20037;-78
2022/06/05 01:42:38;;;;;;;13.82;8.95;;;12.10;99.90;;;;;;5044601;28;20116;-80
2022/06/05 01:45:29;;;;;;;15.30;9.25;;;12.10;99.90;;;;;;5047068;28;20604;-77
2022/06/05 01:47:56;;;;;;;16.23;8.65;;;12.10;99.90;;;;;;5046952;28;20037;-77
2022/06/05 01:50:37;;;;;;;12.73;9.30;;;12.10;99.90;;;;;;5047933;28;20041;-77
2022/06/05 01:53:22;;;;;;;15.57;9.25;;;12.20;99.90;;;;;;5046487;28;20521;-77
2022/06/05 01:56:04;;;;;;;14.05;9.10;;;12.10;99.90;;;;;;5063194;28;21724;-77
2022/06/05 01:58:41;;;;;;;16.52;9.18;;;12.10;99.90;;;;;;5045145;28;20041;-77
2022/06/05 02:01:12;;;;;;;11.88;8.40;;;12.20;99.90;;;;;;5043606;28;20106;-79
2022/06/05 02:03:46;;;;;;;15.27;9.45;;;12.20;99.90;;;;;;5046422;28;20483;-82
2022/06/05 02:06:14;;;;;;;;;;;12.10;99.90;;;;;;5048643;28;20119;-78
2022/06/05 02:08:42;;;;;;;15.32;8.48;;;12.10;99.90;;;;;;5047113;28;19970;-79
2022/06/05 02:11:23;;;;;;;15.23;9.02;;;12.10;99.90;;;;;;5047157;28;20563;-80
2022/06/05 02:13:51;;;;;;;14.30;8.63;;;12.10;99.90;;;;;;5044372;28;20076;-78
2022/06/05 02:16:17;;;;;;;16.35;8.60;;;12.10;99.90;;;;;;5047993;28;20127;-79
2022/06/05 02:18:43;;;;;;;11.50;8.75;;;12.10;99.90;;;;;;5047308;28;20449;-77
2022/06/05 02:21:08;;;;;;;13.07;9.13;;;12.10;99.90;;;;;;5046577;28;21034;-77
2022/06/05 02:23:36;;;;;;;14.60;9.07;;;12.10;99.90;;;;;;5047054;28;20059;-76
2022/06/05 02:26:04;;;;;;;12.38;8.93;;;12.10;99.90;;;;;;5046058;28;20041;-77
2022/06/05 02:28:30;;;;;;;12.38;8.90;;;12.00;99.90;;;;;;5047492;28;20053;-78
2022/06/05 02:31:20;;;;;;;12.25;8.63;;;12.00;99.90;;;;;;5061309;28;20037;-77
2022/06/05 02:34:11;;;;;;;15.05;8.80;;;12.00;99.90;;;;;;5046237;28;20115;-79
2022/06/05 02:37:14;;;;;;;12.40;9.20;;;12.00;99.90;;;;;;5046735;28;20044;-78
2022/06/05 02:39:58;;;;;;;15.00;8.73;;;12.00;99.90;;;;;;5046990;28;20045;-78
2022/06/05 02:42:31;;;;;;;14.10;9.35;;;12.00;99.90;;;;;;5044882;28;20033;-79
2022/06/05 02:45:14;;;;;;;13.45;9.38;;;12.00;99.90;;;;;;5028666;28;20047;-77
2022/06/05 02:48:12;;;;;;;13.63;9.43;;;12.00;99.90;;;;;;5045527;28;20047;-80
2022/06/05 02:51:00;;;;;;;13.95;9.70;;;12.00;99.90;;;;;;5046155;28;20487;-79
2022/06/05 02:53:26;;;;;;;13.25;8.95;;;12.00;99.90;;;;;;5029705;28;20591;-81
2022/06/05 02:55:52;;;;;;;14.18;8.85;;;12.00;99.90;;;;;;5046477;28;20091;-78
2022/06/05 02:58:17;;;;;;;16.05;8.73;;;12.00;99.90;;;;;;5046134;28;20048;-78
2022/06/05 03:03:27;;;;;;;13.73;9.15;;;12.00;99.90;;;;;;5049830;28;20025;-78
2022/06/05 03:03:29;;;;;;;16.15;9.48;;;12.00;99.90;;;;;;5046168;28;20525;-78
2022/06/05 03:05:54;;;;;;;14.75;9.48;;;12.00;99.90;;;;;;5045579;28;20041;-78
2022/06/05 03:08:20;;;;;;;14.70;10.10;;;12.00;99.90;;;;;;5046644;28;20181;-78
2022/06/05 03:10:46;;;;;;;16.00;9.60;;;12.00;99.90;;;;;;5031439;28;20055;-79
2022/06/05 03:13:13;;;;;;;18.83;10.60;;;12.00;99.90;;;;;;5048225;28;20408;-78
2022/06/05 03:15:41;;;;;;;13.15;9.95;;;12.00;99.90;;;;;;5046148;28;20158;-78
2022/06/05 03:18:07;;;;;;;17.95;10.25;;;12.00;99.90;;;;;;5046529;28;20046;-80
2022/06/05 03:20:33;;;;;;;17.45;10.60;;;12.00;99.90;;;;;;5030045;28;20036;-79
2022/06/05 03:22:59;;;;;;;15.88;10.15;;;12.00;99.90;;;;;;5029286;28;20068;-79
2022/06/05 03:25:26;;;;;;;16.23;10.05;;;12.00;99.90;;;;;;5044943;28;20029;-79
2022/06/05 03:27:52;;;;;;;13.52;10.13;;;12.00;99.90;;;;;;5046091;28;20396;-79
2022/06/05 03:30:18;;;;;;;17.52;11.13;;;12.00;99.90;;;;;;5044681;28;20533;-78
2022/06/05 03:32:44;;;;;;;19.58;12.13;;;12.10;99.90;;;;;;5032004;28;20053;-79
2022/06/05 03:35:11;;;;;;;19.58;10.70;;;12.10;99.90;;;;;;5049750;28;20044;-78
2022/06/05 03:37:37;;;;;;;15.30;10.88;;;12.10;99.90;;;;;;5046679;28;20380;-80
2022/06/05 03:40:15;;;;;;;15.18;10.15;;;12.10;99.90;;;;;;5046173;28;20041;-79
2022/06/05 03:42:41;;;;;;;16.95;10.38;;;12.10;99.90;;;;;;5046491;28;20500;-78
2022/06/05 03:45:12;;;;;;;17.95;11.35;;;12.10;99.90;;;;;;5044937;28;20044;-78
2022/06/05 03:47:38;;;;;;;15.27;10.60;;;12.20;99.90;;;;;;5046428;28;20190;-80
2022/06/05 03:50:05;;;;;;;18.42;11.07;;;12.20;99.90;;;;;;5045656;28;20131;-79
2022/06/05 03:52:30;;;;;;;19.45;11.57;;;12.20;99.90;;;;;;5045836;28;20048;-78
2022/06/05 03:54:56;;;;;;;15.07;11.23;;;12.20;99.90;;;;;;5043497;28;20041;-79
2022/06/05 03:57:21;;;;;;;16.75;10.98;;;12.20;99.90;;;;;;5045246;28;20048;-78
2022/06/05 03:59:48;;;;;;;17.08;11.10;;;12.20;99.90;;;;;;5044892;28;20049;-79
2022/06/05 04:02:14;;;;;;;14.80;10.98;;;12.20;99.90;;;;;;5045190;28;20037;-77
2022/06/05 04:04:39;;;;;;;19.55;10.88;;;12.30;99.90;;;;;;5043034;28;20041;-78
2022/06/05 04:07:05;;;;;;;19.23;11.63;;;12.30;99.90;;;;;;5044441;28;20048;-77
2022/06/05 04:09:31;;;;;;;21.15;11.98;;;12.30;99.90;;;;;;5061203;28;20033;-79
2022/06/05 04:11:57;;;;;;;18.40;11.43;;;12.40;99.90;;;;;;5047267;28;20059;-79
2022/06/05 04:14:22;;;;;;;16.55;11.27;;;12.40;99.90;;;;;;5028448;28;20063;-79
2022/06/05 04:16:48;;;;;;;14.55;11.25;;;12.40;99.90;;;;;;5045002;28;20045;-79
2022/06/05 04:19:13;;;;;;;14.80;10.73;;;12.50;99.90;;;;;;5044672;28;20041;-78
2022/06/05 04:21:43;;;;;;;16.63;10.45;;;12.50;99.90;;;;;;5043915;28;20411;-78
2022/06/05 04:24:11;;;;;;;14.35;10.93;;;12.50;99.90;;;;;;5044013;28;20128;-79
2022/06/05 04:26:38;;;;;;;21.15;11.73;;;12.60;99.90;;;;;;5028243;28;20426;-79
2022/06/05 04:29:04;;;;;;;18.38;11.57;;;12.60;99.90;;;;;;5044094;28;20033;-78
2022/06/05 04:31:38;;;;;;;18.35;11.43;;;12.70;99.90;;;;;;5045336;28;20446;-79
2022/06/05 04:34:10;;;;;;;18.52;11.70;;;12.70;99.90;;;;;;5041833;28;20059;-79
2022/06/05 04:36:35;;;;;;;15.70;11.13;;;12.80;99.90;;;;;;5044345;28;20440;-79
2022/06/05 04:39:01;;;;;;;18.90;11.63;;;12.90;99.90;;;;;;5044966;28;20051;-80
2022/06/05 04:41:27;;;;;;;16.05;11.18;;;13.00;99.90;;;;;;5045064;28;20537;-80
2022/06/05 04:43:54;;;;;;;16.42;10.90;;;13.10;99.90;;;;;;5043684;28;20040;-78
2022/06/05 04:46:21;;;;;;;15.60;11.40;;;13.20;99.90;;;;;;5044976;28;20041;-78
2022/06/05 04:48:48;;;;;;;17.02;10.63;;;13.30;99.90;;;;;;5042470;28;21276;-80
2022/06/05 04:51:15;;;;;;;17.52;11.18;;;13.30;99.90;;;;;;5044100;28;20124;-78
2022/06/05 04:53:42;;;;;;;16.63;10.70;;;13.30;99.90;;;;;;5043233;28;20037;-81
2022/06/05 04:56:15;;;;;;;19.85;11.00;;;13.30;99.90;;;;;;5044586;28;20041;-80
2022/06/05 04:58:41;;;;;;;17.55;11.25;;;13.30;99.90;;;;;;5027210;28;20090;-83
2022/06/05 05:01:17;;;;;;;15.75;11.68;;;13.30;99.90;;;;;;5045455;28;20037;-79
2022/06/05 05:03:43;;;;;;;18.20;11.02;;;13.30;99.90;;;;;;5042978;28;20041;-79
2022/06/05 05:06:08;;;;;;;19.13;10.68;;;13.40;99.90;;;;;;5028296;28;20037;-78
2022/06/05 05:08:34;;;;;;;16.10;11.75;;;13.40;99.90;;;;;;5048195;28;20037;-80
2022/06/05 05:11:00;;;;;;;17.42;11.70;;;13.40;99.90;;;;;;5049013;28;20043;-80
2022/06/05 05:13:26;;;;;;;18.77;11.45;;;13.40;99.90;;;;;;5032471;28;21234;-80
2022/06/05 05:15:52;;;;;;;14.75;11.27;;;13.40;99.90;;;;;;5049129;28;20044;-78
2022/06/05 05:18:19;;;;;;;16.30;11.38;;;13.40;99.90;;;;;;5047031;28;20079;-80
2022/06/05 05:20:46;;;;;;;15.85;11.65;;;13.50;99.90;;;;;;5048391;28;20037;-79
2022/06/05 05:23:11;;;;;;;15.63;11.60;;;13.50;99.90;;;;;;5046371;28;20041;-79
2022/06/05 05:25:37;;;;;;;15.07;11.88;;;13.50;99.90;;;;;;5047135;28;20082;-78
2022/06/05 05:28:06;;;;;;;18.85;11.25;;;13.60;99.90;;;;;;5047547;28;20040;-79
2022/06/05 05:30:32;;;;;;;17.83;11.73;;;13.70;99.90;;;;;;5052635;28;20490;-80
2022/06/05 05:32:58;;;;;;;17.10;11.20;;;13.90;99.90;;;;;;5050416;28;20068;-79
2022/06/05 05:35:23;;;;;;;21.52;12.20;;;13.90;99.90;;;;;;5047631;28;20086;-79
2022/06/05 05:37:49;;;;;;;17.42;12.13;;;14.00;99.90;;;;;;5047259;28;20032;-77
2022/06/05 05:42:59;;;;;;;17.08;11.48;;;14.20;99.90;;;;;;5047341;28;20072;-81
2022/06/05 05:45:24;;;;;;;16.35;11.20;;;14.30;99.90;;;;;;5046958;28;20057;-80
2022/06/05 05:47:50;;;;;;;16.02;10.95;;;14.40;99.90;;;;;;5046578;28;20451;-79
2022/06/05 05:50:16;;;;;;;15.43;11.48;;;14.50;99.90;;;;;;5030423;28;20039;-79
2022/06/05 05:52:43;;;;;;;16.50;11.90;;;14.50;99.90;;;;;;5048509;28;20564;-79
2022/06/05 05:55:16;;;;;;;16.85;11.60;;;14.60;99.90;;;;;;5045541;28;20068;-78
2022/06/05 05:57:42;;;;;;;16.90;11.70;;;14.60;99.90;;;;;;5043340;28;20041;-80
2022/06/05 06:00:12;;;;;;;15.77;11.45;;;14.60;99.90;;;;;;5040615;28;20041;-81
2022/06/05 06:02:38;;;;;;;16.35;10.90;;;14.70;99.90;;;;;;5062252;28;20033;-78
2022/06/05 06:05:07;;;;;;;13.93;10.93;;;14.70;99.90;;;;;;5050905;28;20041;-78
2022/06/05 06:07:32;;;;;;;15.77;11.10;;;14.80;99.90;;;;;;5053135;28;20037;-79
2022/06/05 06:09:58;;;;;;;18.00;11.27;;;14.80;99.90;;;;;;5037316;28;20040;-79
2022/06/05 06:12:24;;;;;;;15.90;10.55;;;14.90;99.90;;;;;;5053302;28;20115;-78
2022/06/05 06:14:50;;;;;;;15.60;11.18;;;15.00;99.90;;;;;;5053016;28;20465;-79
2022/06/05 06:17:16;;;;;;;14.90;10.63;;;15.00;99.90;;;;;;5052924;28;20080;-78
2022/06/05 06:19:41;;;;;;;15.82;10.85;;;15.10;99.90;;;;;;5053570;28;20473;-79
2022/06/05 06:22:07;;;;;;;13.90;11.20;;;15.20;99.90;;;;;;5053798;28;20098;-79
2022/06/05 06:24:33;;;;;;;14.32;10.70;;;15.20;99.90;;;;;;5036212;28;20117;-79
2022/06/05 06:26:58;;;;;;;15.05;11.15;;;15.30;99.90;;;;;;5053443;28;20032;-83
2022/06/05 06:29:24;;;;;;;17.30;11.38;;;15.30;99.90;;;;;;5053191;28;20044;-79
2022/06/05 06:31:49;;;;;;;14.10;10.63;;;15.40;99.90;;;;;;5053266;28;20040;-78
2022/06/05 06:34:15;;;;;;;14.48;10.60;;;15.50;99.90;;;;;;5050994;28;20334;-78
2022/06/05 06:36:41;;;;;;;13.90;11.18;;;15.40;99.90;;;;;;5053576;28;20040;-79
2022/06/05 06:39:06;;;;;;;14.43;11.07;;;15.60;99.90;;;;;;5053083;28;20037;-79
2022/06/05 06:41:32;;;;;;;13.40;10.65;;;15.60;99.90;;;;;;5052317;28;20049;-79
2022/06/05 06:43:58;;;;;;;14.60;11.23;;;15.70;99.90;;;;;;5051647;28;20045;-79
2022/06/05 06:46:24;;;;;;;12.95;11.02;;;15.80;99.90;;;;;;5053515;28;20098;-79
2022/06/05 06:48:50;;;;;;;16.50;10.65;;;15.90;99.90;;;;;;5053625;28;20037;-79
2022/06/05 06:51:16;;;;;;;15.25;10.73;;;16.00;99.90;;;;;;5040054;28;20048;-83
2022/06/05 06:53:42;;;;;;;15.55;10.95;;;16.10;99.90;;;;;;5052756;28;20468;-83
2022/06/05 06:56:15;;;;;;;14.77;11.63;;;16.20;99.90;;;;;;5036487;28;20518;-83
2022/06/05 06:58:42;;;;;;;12.98;11.10;;;16.30;99.90;;;;;;5053400;28;20431;-79
2022/06/05 07:01:08;;;;;;;12.27;10.52;;;16.30;99.90;;;;;;5052699;28;20079;-79
2022/06/05 07:03:34;;;;;;;12.93;10.57;;;16.40;99.90;;;;;;5053141;28;20033;-81
2022/06/05 07:06:06;;;;;;;14.52;11.40;;;16.50;99.90;;;;;;5035391;28;20065;-81
2022/06/05 07:08:31;;;;;;;14.23;10.45;;;16.60;99.90;;;;;;5052855;28;20056;-80
2022/06/05 07:10:57;;;;;;;14.07;10.93;;;16.70;99.90;;;;;;5050108;28;20511;-81
2022/06/05 07:13:23;;;;;;;14.00;10.52;;;16.80;99.90;;;;;;5032104;28;20044;-79
2022/06/05 07:15:49;;;;;;;14.60;11.10;;;16.80;99.90;;;;;;5047839;28;20593;-80
2022/06/05 07:18:14;;;;;;;13.02;10.70;;;16.90;99.90;;;;;;5050884;28;20128;-79
2022/06/05 07:20:43;;;;;;;14.05;10.00;;;17.00;99.90;;;;;;5052697;28;20495;-78
2022/06/05 07:23:09;;;;;;;11.35;10.00;;;17.00;99.90;;;;;;5049896;28;20168;-78
2022/06/05 07:25:36;;;;;;;13.20;10.18;;;17.20;99.90;;;;;;5051743;28;20175;-80
2022/06/05 07:28:02;;;;;;;13.77;10.07;;;17.20;99.90;;;;;;5051447;28;20045;-78
2022/06/05 07:30:28;;;;;;;17.45;10.65;;;17.30;99.90;;;;;;5048252;28;20055;-82
2022/06/05 07:32:54;;;;;;;10.85;9.70;;;17.40;99.90;;;;;;5047983;28;20051;-79
2022/06/05 07:35:21;;;;;;;12.80;10.40;;;17.50;99.90;;;;;;5050385;28;20041;-79
2022/06/05 07:37:47;;;;;;;14.75;9.90;;;17.60;99.90;;;;;;5051387;28;21865;-79
2022/06/05 07:40:14;;;;;;;11.75;9.77;;;17.60;99.90;;;;;;5051184;28;20041;-79
2022/06/05 07:42:41;;;;;;;12.27;9.40;;;17.70;99.90;;;;;;5051388;28;20033;-81
2022/06/05 07:45:09;;;;;;;11.00;9.32;;;17.70;99.90;;;;;;5049869;28;20037;-81
2022/06/05 07:47:35;;;;;;;11.90;9.80;;;17.80;99.90;;;;;;5048621;28;20410;-79
2022/06/05 07:50:00;;;;;;;13.07;9.95;;;18.00;99.90;;;;;;5051029;28;20048;-79
2022/06/05 07:55:10;;;;;;;;;;;18.30;99.90;;;;;;5050639;28;20041;-81
2022/06/05 07:57:36;;;;;;;11.07;9.20;;;18.50;99.90;;;;;;5051214;28;19931;-82
2022/06/05 08:00:05;;;;;;;12.80;9.70;;;18.60;99.90;;;;;;5050769;28;20119;-81
2022/06/05 08:02:31;;;;;;;13.07;9.48;;;18.70;99.90;;;;;;5050478;28;20037;-82
2022/06/05 08:04:57;;;;;;;13.70;9.45;;;18.80;99.90;;;;;;5051757;28;20028;-81
2022/06/05 08:07:25;;;;;;;11.23;9.13;;;18.80;99.90;;;;;;5055959;28;20029;-81
2022/06/05 08:09:54;;;;;;;13.13;9.40;;;18.90;99.90;;;;;;5058181;28;20584;-83
2022/06/05 08:12:22;;;;;;;11.73;9.35;;;19.00;99.90;;;;;;5052541;28;20036;-80
2022/06/05 08:14:49;;;;;;;10.15;8.75;;;19.00;99.90;;;;;;5051745;28;20041;-81
2022/06/05 08:17:18;;;;;;;10.70;8.95;;;19.10;99.90;;;;;;5051865;28;20044;-82
2022/06/05 08:19:44;;;;;;;9.73;8.73;;;19.10;99.90;;;;;;5051999;28;20041;-81
2022/06/05 08:22:12;;;;;;;10.15;8.32;;;19.20;99.90;;;;;;5051926;28;20033;-82
2022/06/05 08:24:39;;;;;;;10.32;8.55;;;19.40;99.90;;;;;;5050796;28;20084;-82
2022/06/05 08:27:07;;;;;;;12.45;8.30;;;19.50;99.90;;;;;;5051394;28;20063;-82
2022/06/05 08:29:32;;;;;;;9.77;8.25;;;19.60;99.90;;;;;;5035162;28;20049;-82
2022/06/05 08:31:58;;;;;;;10.02;8.38;;;19.70;99.90;;;;;;5033986;28;20480;-82
2022/06/05 08:34:23;;;;;;;11.23;7.80;;;19.80;99.90;;;;;;5033638;28;20175;-81
2022/06/05 08:41:26;;;;;;;9.30;8.05;;;19.80;99.90;;;;;;5052423;28;20510;-81
2022/06/05 08:42:39;;;;;;;11.18;7.97;;;20.10;99.90;;;;;;5037045;28;20415;-82
2022/06/05 08:45:22;;;;;;;8.43;7.57;;;20.20;99.90;;;;;;5049145;28;20045;-82
2022/06/05 08:48:03;;;;;;;9.95;7.82;;;20.30;99.90;;;;;;5050700;28;20052;-84
2022/06/05 08:50:53;;;;;;;9.90;7.70;;;20.40;99.90;;;;;;5050734;28;20072;-82
2022/06/05 08:53:40;;;;;;;9.60;7.68;;;20.40;99.90;;;;;;5050076;28;20495;-81
2022/06/05 08:56:11;;;;;;;9.40;7.88;;;20.50;99.90;;;;;;5050815;28;20041;-83
2022/06/05 08:58:50;;;;;;;12.52;8.02;;;20.60;99.90;;;;;;5050474;28;20041;-82
2022/06/05 09:01:39;;;;;;;9.73;8.00;;;20.70;99.90;;;;;;5051468;28;20134;-84
2022/06/05 09:04:41;;;;;;;11.60;7.38;;;20.70;99.90;;;;;;5049586;28;20094;-83
2022/06/05 09:07:13;;;;;;;8.55;7.50;;;20.80;99.90;;;;;;5050739;28;20037;-83
2022/06/05 09:09:56;;;;;;;8.68;7.18;;;20.70;99.90;;;;;;5050361;28;20069;-83
2022/06/05 09:12:47;;;;;;;9.50;7.85;;;20.80;99.90;;;;;;5050206;28;20135;-83
2022/06/05 09:15:16;;;;;;;7.90;7.10;;;20.90;99.90;;;;;;5049430;28;20410;-83
2022/06/05 09:17:51;;;;;;;10.27;7.15;;;20.80;99.90;;;;;;5049831;28;20045;-83
2022/06/05 09:20:18;;;;;;;11.43;8.10;;;20.90;99.90;;;;;;5049978;28;20072;-83
2022/06/05 09:22:57;;;;;;;12.30;7.50;;;20.90;99.90;;;;;;5047387;28;20064;-82
2022/06/05 09:25:46;;;;;;;8.63;7.45;;;20.90;99.90;;;;;;5049174;28;20455;-83
2022/06/05 09:28:25;;;;;;;9.00;7.43;;;21.00;99.90;;;;;;5038414;28;20391;-82
2022/06/05 09:31:13;;;;;;;8.23;6.90;;;21.10;99.90;;;;;;5050103;28;20029;-82
2022/06/05 09:33:40;;;;;;;9.20;6.68;;;21.10;99.90;;;;;;5050458;28;20045;-82
2022/06/05 09:36:13;;;;;;;8.27;7.30;;;21.30;99.90;;;;;;5049958;28;20037;-82
2022/06/05 09:38:46;;;;;;;8.32;7.43;;;21.50;99.90;;;;;;5049868;28;20566;-81
2022/06/05 09:41:28;;;;;;;8.70;6.97;;;21.60;99.90;;;;;;5050225;28;20107;-83
2022/06/05 09:44:23;;;;;;;8.63;7.55;;;21.80;99.90;;;;;;5049656;28;20112;-83
2022/06/05 09:46:58;;;;;;;9.13;7.63;;;22.00;99.90;;;;;;5050141;28;20080;-83
2022/06/05 09:49:41;;;;;;;10.05;6.90;;;22.20;99.90;;;;;;5029515;28;20738;-83
2022/06/05 09:52:17;;;;;;;8.18;6.90;;;22.30;99.90;;;;;;5049781;28;20067;-82
2022/06/05 09:54:47;;;;;;;9.98;7.30;;;22.40;99.90;;;;;;5050545;28;20178;-83
2022/06/05 10:00:25;;;;;;;9.90;7.20;;;22.60;99.90;;;;;;5052941;28;20510;-82
2022/06/05 10:02:51;;;;;;;9.20;6.80;;;22.50;99.90;;;;;;5035135;28;20091;-84
2022/06/05 10:05:36;;;;;;;9.05;7.15;;;22.50;99.90;;;;;;5048579;28;20120;-83
2022/06/05 10:08:16;;;;;;;10.02;7.13;;;22.50;99.90;;;;;;5049006;28;20033;-83
2022/06/05 10:10:43;;;;;;;8.48;7.25;;;22.50;99.90;;;;;;5051901;28;20078;-82
2022/06/05 10:13:36;;;;;;;7.35;6.65;;;22.50;99.90;;;;;;5051498;28;20525;-83
2022/06/05 10:16:11;;;;;;;8.83;6.80;;;22.60;99.90;;;;;;5051413;28;20086;-85
2022/06/05 10:18:50;;;;;;;8.40;6.72;;;22.80;99.90;;;;;;5053476;28;20568;-83
2022/06/05 10:21:20;;;;;;;7.18;6.22;;;22.90;99.90;;;;;;5053033;28;20045;-83
2022/06/05 10:24:20;;;;;;;7.85;6.78;;;23.10;99.90;;;;;;5051681;28;20025;-84
2022/06/05 10:26:51;;;;;;;8.60;6.68;;;23.30;99.90;;;;;;5053072;28;20402;-86
2022/06/05 10:29:28;;;;;;;7.35;6.45;;;23.40;99.90;;;;;;5048650;28;20519;-85
2022/06/05 10:32:10;;;;;;;10.15;6.93;;;23.40;99.90;;;;;;5052124;28;20047;-83
2022/06/05 10:34:46;;;;;;;8.32;6.80;;;23.40;99.90;;;;;;5051358;28;20459;-86
2022/06/05 10:37:18;;;;;;;8.63;6.63;;;23.50;99.90;;;;;;5052105;28;20051;-86
2022/06/05 10:40:03;;;;;;;8.35;6.32;;;23.50;99.90;;;;;;5051739;28;20052;-85
2022/06/05 10:42:43;;;;;;;7.05;6.35;;;23.50;99.90;;;;;;5052106;28;20037;-87
2022/06/05 10:45:17;;;;;;;7.93;6.13;;;23.50;99.90;;;;;;5051310;28;20116;-83
2022/06/05 10:47:42;;;;;;;6.60;5.90;;;23.50;99.90;;;;;;5035485;28;20407;-85
2022/06/05 10:50:21;;;;;;;7.57;6.38;;;23.50;99.90;;;;;;5035574;28;20048;-84
2022/06/05 10:52:53;;;;;;;8.27;6.28;;;23.40;99.90;;;;;;5047160;28;20079;-84
2022/06/05 10:55:18;;;;;;;8.32;6.45;;;23.40;99.90;;;;;;5046908;28;20037;-84
2022/06/05 10:58:26;;;;;;;7.15;5.80;;;23.30;99.90;;;;;;5048249;28;20655;-85
2022/06/05 11:00:58;;;;;;;7.57;6.32;;;23.30;99.90;;;;;;5051169;28;20522;-83
2022/06/05 11:03:48;;;;;;;7.03;6.22;;;23.20;99.90;;;;;;5035242;28;20071;-83
2022/06/05 11:06:54;;;;;;;8.32;6.25;;;23.10;99.90;;;;;;5050096;28;20041;-85
2022/06/05 11:09:56;;;;;;;7.18;6.05;;;23.20;99.90;;;;;;5050726;28;20108;-85
2022/06/05 11:15:46;;;;;;;7.18;6.47;;;23.20;99.90;;;;;;5039182;28;20040;-84
2022/06/05 11:18:27;;;;;;;7.20;6.50;;;23.30;99.90;;;;;;5051576;28;20076;-83
2022/06/05 11:20:57;;;;;;;6.35;5.75;;;23.30;99.90;;;;;;5035284;28;20048;-83
2022/06/05 11:23:28;;;;;;;7.00;6.30;;;23.30;99.90;;;;;;5050622;28;20037;-84
2022/06/05 11:26:35;;;;;;;8.35;6.47;;;23.40;99.90;;;;;;5034121;28;20083;-84
2022/06/05 11:29:19;;;;;;;11.10;6.25;;;23.40;99.90;;;;;;5031943;28;20525;-86
2022/06/05 11:32:07;;;;;;;8.85;6.65;;;23.50;99.90;;;;;;5052148;28;20060;-83
2022/06/05 11:35:09;;;;;;;7.20;6.15;;;23.50;99.90;;;;;;5050472;28;20056;-84
2022/06/05 11:37:54;;;;;;;7.50;6.25;;;23.60;99.90;;;;;;4997683;28;20055;-84
2022/06/05 11:40:34;;;;;;;8.65;6.22;;;23.50;99.90;;;;;;5050695;28;20180;-85
2022/06/05 11:43:08;;;;;;;7.47;6.10;;;23.60;99.90;;;;;;5051367;28;20037;-83
2022/06/05 11:45:53;;;;;;;6.53;5.75;;;23.60;99.90;;;;;;5033369;28;20036;-83
2022/06/05 11:48:31;;;;;;;10.18;5.70;;;23.70;99.90;;;;;;5048538;28;20040;-84
2022/06/05 11:51:21;;;;;;;7.28;5.68;;;23.80;99.90;;;;;;5040976;28;20057;-82
2022/06/05 11:54:02;;;;;;;6.18;5.50;;;23.80;99.90;;;;;;5048851;28;20499;-83
2022/06/05 11:56:53;;;;;;;7.97;5.72;;;23.80;99.90;;;;;;5050718;28;20049;-84
2022/06/05 11:59:44;;;;;;;8.25;5.53;;;23.90;99.90;;;;;;5050329;28;20041;-84
2022/06/05 12:02:32;;;;;;;6.68;5.50;;;23.90;99.90;;;;;;5037861;28;20051;-83
2022/06/05 12:05:03;;;;;;;8.27;5.90;;;23.90;99.90;;;;;;5050110;28;20060;-84
2022/06/05 12:07:29;;;;;;;7.93;5.68;;;23.90;99.90;;;;;;5051048;28;20128;-84
2022/06/05 12:10:01;;;;;;;6.07;5.30;;;24.00;99.90;;;;;;5050938;28;20124;-82
2022/06/05 12:12:40;;;;;;;6.40;5.40;;;24.00;99.90;;;;;;5050916;28;20037;-84
2022/06/05 12:15:17;;;;;;;7.35;5.15;;;24.00;99.90;;;;;;5049908;28;20360;-83
2022/06/05 12:18:06;;;;;;;6.00;5.20;;;24.00;99.90;;;;;;5050965;28;20041;-84
2022/06/05 12:20:50;;;;;;;7.85;5.97;;;24.10;99.90;;;;;;5050595;28;20060;-82
2022/06/05 12:23:44;;;;;;;11.35;5.78;;;24.10;99.90;;;;;;5050135;28;20036;-84
2022/06/05 12:26:49;;;;;;;6.55;5.15;;;24.10;99.90;;;;;;5038987;28;20037;-82
2022/06/05 12:29:30;;;;;;;6.05;5.43;;;24.20;99.90;;;;;;5010548;28;20053;-83
2022/06/05 12:32:04;;;;;;;7.10;5.60;;;24.20;99.90;;;;;;5050626;28;20045;-83
2022/06/05 12:34:50;;;;;;;6.95;5.47;;;24.20;99.90;;;;;;5036701;28;20041;-84
2022/06/05 12:37:36;;;;;;;6.00;5.43;;;24.20;99.90;;;;;;5050491;28;20411;-83
2022/06/05 12:40:05;;;;;;;8.63;5.38;;;24.20;99.90;;;;;;5033798;28;20049;-84
2022/06/05 12:42:40;;;;;;;7.05;5.45;;;24.30;99.90;;;;;;5050186;28;20033;-86
2022/06/05 12:45:25;;;;;;;6.88;5.38;;;24.30;99.90;;;;;;5049029;28;20090;-82
2022/06/05 12:48:11;;;;;;;7.75;5.45;;;24.30;99.90;;;;;;5050760;28;20430;-84
2022/06/05 12:50:47;;;;;;;6.30;5.60;;;24.30;99.90;;;;;;5036574;28;20041;-83
2022/06/05 12:53:31;;;;;;;6.68;6.07;;;24.30;99.90;;;;;;5050119;28;20115;-83
2022/06/05 12:56:19;;;;;;;6.10;5.45;;;24.30;99.90;;;;;;5049470;28;20071;-85
2022/06/05 12:59:13;;;;;;;5.90;5.40;;;24.20;99.90;;;;;;5050367;28;20041;-84
2022/06/05 13:01:48;;;;;;;6.20;5.60;;;24.10;99.90;;;;;;5050349;28;20065;-84
2022/06/05 13:04:26;;;;;;;6.47;5.55;;;24.10;99.90;;;;;;5049611;28;20028;-85
2022/06/05 13:07:24;;;;;;;5.90;5.30;;;24.10;99.90;;;;;;5049876;28;20094;-83
2022/06/05 13:10:00;;;;;;;9.70;5.80;;;24.00;99.90;;;;;;5040846;28;20512;-83
2022/06/05 13:13:02;;;;;;;6.45;5.28;;;24.00;99.90;;;;;;5051727;28;20033;-82
2022/06/05 13:15:34;;;;;;;6.32;5.47;;;24.00;99.90;;;;;;5032191;28;20049;-82
2022/06/05 13:18:17;;;;;;;7.13;5.65;;;24.00;99.90;;;;;;5046465;28;20057;-82
2022/06/05 13:21:09;;;;;;;5.88;5.28;;;23.90;99.90;;;;;;5046738;28;20060;-83
2022/06/05 13:24:15;;;;;;;6.28;5.57;;;23.90;99.90;;;;;;5048392;28;20124;-84
2022/06/05 13:27:01;;;;;;;5.97;5.35;;;23.90;99.90;;;;;;5031029;28;20126;-82